sensor_id;sensor_type;location;lat;lon;timestamp;P1;durP1;ratioP1;P2;durP2;ratioP2
18114;SDS011;9184;54.390;18.620;2022-12-10T00:00:19;46.40;;;29.73;;
18114;SDS011;9184;54.390;18.620;2022-12-10T00:00:49;46.13;;;29.27;;
18114;SDS011;9184;54.390;18.620;2022-12-10T00:01:22;106.80;;;61.67;;
18114;SDS011;9184;54.390;18.620;2022-12-10T00:01:53;145.73;;;69.07;;
18114;SDS011;9184;54.390;18.620;2022-12-10T00:02:24;81.67;;;59.13;;
18114;SDS011;9184;54.390;18.620;2022-12-10T00:02:55;58.47;;;41.87;;
18114;SDS011;9184;54.390;18.620;2022-12-10T00:03:26;30.63;;;22.23;;
18114;SDS011;9184;54.390;18.620;2022-12-10T00:03:57;31.73;;;20.37;;
18114;SDS011;9184;54.390;18.620;2022-12-10T00:04:28;34.33;;;20.50;;
18114;SDS011;9184;54.390;18.620;2022-12-10T00:04:58;33.53;;;22.43;;
18114;SDS011;9184;54.390;18.620;2022-12-10T00:05:32;36.27;;;23.00;;
18114;SDS011;9184;54.390;18.620;2022-12-10T00:06:08;34.83;;;21.63;;
18114;SDS011;9184;54.390;18.620;2022-12-10T00:06:40;33.77;;;21.93;;
18114;SDS011;9184;54.390;18.620;2022-12-10T00:07:11;37.97;;;24.30;;
18114;SDS011;9184;54.390;18.620;2022-12-10T00:07:42;34.53;;;22.53;;
18114;SDS011;9184;54.390;18.620;2022-12-10T00:08:12;37.00;;;24.33;;
18114;SDS011;9184;54.390;18.620;2022-12-10T00:08:44;42.90;;;25.70;;
18114;SDS011;9184;54.390;18.620;2022-12-10T00:09:15;36.87;;;23.17;;
18114;SDS011;9184;54.390;18.620;2022-12-10T00:09:46;40.40;;;24.97;;
18114;SDS011;9184;54.390;18.620;2022-12-10T00:10:17;42.13;;;26.23;;
18114;SDS011;9184;54.390;18.620;2022-12-10T00:10:47;35.87;;;23.77;;
18114;SDS011;9184;54.390;18.620;2022-12-10T00:11:18;37.30;;;22.57;;
18114;SDS011;9184;54.390;18.620;2022-12-10T00:11:49;35.83;;;22.10;;
18114;SDS011;9184;54.390;18.620;2022-12-10T00:12:21;34.30;;;21.83;;
18114;SDS011;9184;54.390;18.620;2022-12-10T00:12:51;33.43;;;21.83;;
18114;SDS011;9184;54.390;18.620;2022-12-10T00:13:22;37.40;;;23.63;;
18114;SDS011;9184;54.390;18.620;2022-12-10T00:13:53;47.47;;;25.43;;
18114;SDS011;9184;54.390;18.620;2022-12-10T00:14:24;48.70;;;28.47;;
18114;SDS011;9184;54.390;18.620;2022-12-10T00:14:55;47.77;;;29.80;;
18114;SDS011;9184;54.390;18.620;2022-12-10T00:15:25;56.50;;;32.90;;
18114;SDS011;9184;54.390;18.620;2022-12-10T00:15:58;58.40;;;32.73;;
18114;SDS011;9184;54.390;18.620;2022-12-10T00:16:30;61.47;;;32.53;;
18114;SDS011;9184;54.390;18.620;2022-12-10T00:17:01;51.20;;;29.90;;
18114;SDS011;9184;54.390;18.620;2022-12-10T00:17:32;64.43;;;34.33;;
18114;SDS011;9184;54.390;18.620;2022-12-10T00:18:03;77.67;;;43.00;;
18114;SDS011;9184;54.390;18.620;2022-12-10T00:18:33;67.90;;;38.57;;
18114;SDS011;9184;54.390;18.620;2022-12-10T00:19:05;60.63;;;34.90;;
18114;SDS011;9184;54.390;18.620;2022-12-10T00:19:35;54.13;;;31.30;;
18114;SDS011;9184;54.390;18.620;2022-12-10T00:20:06;44.00;;;25.87;;
18114;SDS011;9184;54.390;18.620;2022-12-10T00:20:38;37.67;;;23.80;;
18114;SDS011;9184;54.390;18.620;2022-12-10T00:21:10;38.60;;;23.97;;
18114;SDS011;9184;54.390;18.620;2022-12-10T00:21:41;33.70;;;23.07;;
18114;SDS011;9184;54.390;18.620;2022-12-10T00:22:13;36.13;;;22.77;;
18114;SDS011;9184;54.390;18.620;2022-12-10T00:22:44;37.20;;;24.07;;
18114;SDS011;9184;54.390;18.620;2022-12-10T00:23:14;39.93;;;25.03;;
18114;SDS011;9184;54.390;18.620;2022-12-10T00:23:45;35.93;;;23.30;;
18114;SDS011;9184;54.390;18.620;2022-12-10T00:24:16;39.83;;;24.93;;
18114;SDS011;9184;54.390;18.620;2022-12-10T00:24:47;40.03;;;24.40;;
18114;SDS011;9184;54.390;18.620;2022-12-10T00:25:17;36.33;;;23.33;;
18114;SDS011;9184;54.390;18.620;2022-12-10T00:25:49;38.47;;;24.60;;
18114;SDS011;9184;54.390;18.620;2022-12-10T00:26:20;43.03;;;25.73;;
18114;SDS011;9184;54.390;18.620;2022-12-10T00:26:51;39.57;;;25.30;;
18114;SDS011;9184;54.390;18.620;2022-12-10T00:27:22;37.77;;;23.90;;
18114;SDS011;9184;54.390;18.620;2022-12-10T00:27:53;36.67;;;24.33;;
18114;SDS011;9184;54.390;18.620;2022-12-10T00:28:23;37.77;;;24.10;;
18114;SDS011;9184;54.390;18.620;2022-12-10T00:28:55;36.53;;;23.30;;
18114;SDS011;9184;54.390;18.620;2022-12-10T00:29:25;31.60;;;21.60;;
18114;SDS011;9184;54.390;18.620;2022-12-10T00:29:56;33.40;;;22.50;;
18114;SDS011;9184;54.390;18.620;2022-12-10T00:30:27;32.47;;;20.13;;
18114;SDS011;9184;54.390;18.620;2022-12-10T00:31:01;34.93;;;22.43;;
18114;SDS011;9184;54.390;18.620;2022-12-10T00:31:34;32.13;;;20.43;;
18114;SDS011;9184;54.390;18.620;2022-12-10T00:32:06;34.40;;;22.37;;
18114;SDS011;9184;54.390;18.620;2022-12-10T00:32:37;35.00;;;21.90;;
18114;SDS011;9184;54.390;18.620;2022-12-10T00:33:07;40.43;;;27.37;;
18114;SDS011;9184;54.390;18.620;2022-12-10T00:33:38;42.07;;;30.47;;
18114;SDS011;9184;54.390;18.620;2022-12-10T00:34:10;41.50;;;29.57;;
18114;SDS011;9184;54.390;18.620;2022-12-10T00:34:43;40.53;;;25.37;;
18114;SDS011;9184;54.390;18.620;2022-12-10T00:35:13;38.00;;;26.33;;
18114;SDS011;9184;54.390;18.620;2022-12-10T00:35:45;41.57;;;30.87;;
18114;SDS011;9184;54.390;18.620;2022-12-10T00:36:17;37.40;;;26.47;;
18114;SDS011;9184;54.390;18.620;2022-12-10T00:36:47;36.83;;;24.23;;
18114;SDS011;9184;54.390;18.620;2022-12-10T00:37:19;39.33;;;24.60;;
18114;SDS011;9184;54.390;18.620;2022-12-10T00:37:49;33.07;;;23.30;;
18114;SDS011;9184;54.390;18.620;2022-12-10T00:38:21;36.27;;;24.27;;
18114;SDS011;9184;54.390;18.620;2022-12-10T00:38:53;38.07;;;23.97;;
18114;SDS011;9184;54.390;18.620;2022-12-10T00:39:23;37.20;;;24.10;;
18114;SDS011;9184;54.390;18.620;2022-12-10T00:39:53;34.37;;;23.73;;
18114;SDS011;9184;54.390;18.620;2022-12-10T00:40:25;33.23;;;23.63;;
18114;SDS011;9184;54.390;18.620;2022-12-10T00:40:55;32.57;;;22.97;;
18114;SDS011;9184;54.390;18.620;2022-12-10T00:41:26;33.50;;;23.10;;
18114;SDS011;9184;54.390;18.620;2022-12-10T00:41:57;46.37;;;21.70;;
18114;SDS011;9184;54.390;18.620;2022-12-10T00:42:28;33.27;;;21.60;;
18114;SDS011;9184;54.390;18.620;2022-12-10T00:42:58;37.83;;;25.60;;
18114;SDS011;9184;54.390;18.620;2022-12-10T00:43:30;39.57;;;28.20;;
18114;SDS011;9184;54.390;18.620;2022-12-10T00:44:01;34.97;;;23.00;;
18114;SDS011;9184;54.390;18.620;2022-12-10T00:44:31;29.23;;;19.53;;
18114;SDS011;9184;54.390;18.620;2022-12-10T00:45:03;32.10;;;19.33;;
18114;SDS011;9184;54.390;18.620;2022-12-10T00:45:33;33.63;;;20.20;;
18114;SDS011;9184;54.390;18.620;2022-12-10T00:46:04;32.83;;;19.97;;
18114;SDS011;9184;54.390;18.620;2022-12-10T00:46:37;32.53;;;20.27;;
18114;SDS011;9184;54.390;18.620;2022-12-10T00:47:08;32.90;;;20.00;;
18114;SDS011;9184;54.390;18.620;2022-12-10T00:47:38;31.50;;;20.33;;
18114;SDS011;9184;54.390;18.620;2022-12-10T00:48:09;33.03;;;19.20;;
18114;SDS011;9184;54.390;18.620;2022-12-10T00:48:40;30.63;;;19.60;;
18114;SDS011;9184;54.390;18.620;2022-12-10T00:49:11;32.97;;;21.00;;
18114;SDS011;9184;54.390;18.620;2022-12-10T00:49:42;35.60;;;21.20;;
18114;SDS011;9184;54.390;18.620;2022-12-10T00:50:13;31.80;;;20.97;;
18114;SDS011;9184;54.390;18.620;2022-12-10T00:50:43;31.77;;;20.43;;
18114;SDS011;9184;54.390;18.620;2022-12-10T00:51:15;27.30;;;18.73;;
18114;SDS011;9184;54.390;18.620;2022-12-10T00:51:47;33.97;;;20.27;;
18114;SDS011;9184;54.390;18.620;2022-12-10T00:52:17;36.30;;;22.90;;
18114;SDS011;9184;54.390;18.620;2022-12-10T00:52:48;32.93;;;21.77;;
18114;SDS011;9184;54.390;18.620;2022-12-10T00:53:18;31.93;;;20.87;;
18114;SDS011;9184;54.390;18.620;2022-12-10T00:53:50;32.50;;;21.40;;
18114;SDS011;9184;54.390;18.620;2022-12-10T00:54:21;37.23;;;20.57;;
18114;SDS011;9184;54.390;18.620;2022-12-10T00:54:52;32.30;;;20.83;;
18114;SDS011;9184;54.390;18.620;2022-12-10T00:55:23;32.00;;;20.13;;
18114;SDS011;9184;54.390;18.620;2022-12-10T00:55:54;31.80;;;20.77;;
18114;SDS011;9184;54.390;18.620;2022-12-10T00:56:26;34.67;;;21.10;;
18114;SDS011;9184;54.390;18.620;2022-12-10T00:56:58;30.80;;;20.23;;
18114;SDS011;9184;54.390;18.620;2022-12-10T00:57:28;33.27;;;21.10;;
18114;SDS011;9184;54.390;18.620;2022-12-10T00:57:59;27.97;;;19.37;;
18114;SDS011;9184;54.390;18.620;2022-12-10T00:58:33;33.27;;;19.20;;
18114;SDS011;9184;54.390;18.620;2022-12-10T00:59:04;31.03;;;19.70;;
18114;SDS011;9184;54.390;18.620;2022-12-10T00:59:35;30.13;;;20.17;;
18114;SDS011;9184;54.390;18.620;2022-12-10T01:00:08;34.23;;;20.77;;
18114;SDS011;9184;54.390;18.620;2022-12-10T01:00:38;30.40;;;21.03;;
18114;SDS011;9184;54.390;18.620;2022-12-10T01:01:10;31.03;;;19.27;;
18114;SDS011;9184;54.390;18.620;2022-12-10T01:01:45;30.90;;;20.02;;
18114;SDS011;9184;54.390;18.620;2022-12-10T01:02:16;31.13;;;20.17;;
18114;SDS011;9184;54.390;18.620;2022-12-10T01:02:46;35.83;;;22.40;;
18114;SDS011;9184;54.390;18.620;2022-12-10T01:03:18;31.00;;;19.80;;
18114;SDS011;9184;54.390;18.620;2022-12-10T01:03:49;30.37;;;20.23;;
18114;SDS011;9184;54.390;18.620;2022-12-10T01:04:19;33.90;;;21.70;;
18114;SDS011;9184;54.390;18.620;2022-12-10T01:04:51;34.30;;;21.53;;
18114;SDS011;9184;54.390;18.620;2022-12-10T01:05:24;35.30;;;21.87;;
18114;SDS011;9184;54.390;18.620;2022-12-10T01:05:54;33.13;;;21.77;;
18114;SDS011;9184;54.390;18.620;2022-12-10T01:06:26;36.73;;;22.37;;
18114;SDS011;9184;54.390;18.620;2022-12-10T01:06:57;37.20;;;23.00;;
18114;SDS011;9184;54.390;18.620;2022-12-10T01:07:29;36.17;;;22.83;;
18114;SDS011;9184;54.390;18.620;2022-12-10T01:08:00;38.70;;;23.13;;
18114;SDS011;9184;54.390;18.620;2022-12-10T01:08:30;34.87;;;21.97;;
18114;SDS011;9184;54.390;18.620;2022-12-10T01:09:03;34.87;;;21.70;;
18114;SDS011;9184;54.390;18.620;2022-12-10T01:09:34;32.07;;;21.17;;
18114;SDS011;9184;54.390;18.620;2022-12-10T01:10:04;30.27;;;19.90;;
18114;SDS011;9184;54.390;18.620;2022-12-10T01:10:36;32.03;;;21.08;;
18114;SDS011;9184;54.390;18.620;2022-12-10T01:11:07;35.27;;;21.43;;
18114;SDS011;9184;54.390;18.620;2022-12-10T01:11:39;33.80;;;20.17;;
18114;SDS011;9184;54.390;18.620;2022-12-10T01:12:10;31.10;;;20.13;;
18114;SDS011;9184;54.390;18.620;2022-12-10T01:12:41;31.13;;;18.73;;
18114;SDS011;9184;54.390;18.620;2022-12-10T01:13:11;34.23;;;20.77;;
18114;SDS011;9184;54.390;18.620;2022-12-10T01:13:42;35.77;;;21.13;;
18114;SDS011;9184;54.390;18.620;2022-12-10T01:14:14;31.50;;;20.73;;
18114;SDS011;9184;54.390;18.620;2022-12-10T01:14:47;29.20;;;18.63;;
18114;SDS011;9184;54.390;18.620;2022-12-10T01:15:18;29.20;;;20.73;;
18114;SDS011;9184;54.390;18.620;2022-12-10T01:15:49;32.77;;;20.07;;
18114;SDS011;9184;54.390;18.620;2022-12-10T01:16:21;31.07;;;18.20;;
18114;SDS011;9184;54.390;18.620;2022-12-10T01:16:54;30.20;;;18.97;;
18114;SDS011;9184;54.390;18.620;2022-12-10T01:17:25;33.83;;;18.93;;
18114;SDS011;9184;54.390;18.620;2022-12-10T01:17:57;31.48;;;19.33;;
18114;SDS011;9184;54.390;18.620;2022-12-10T01:18:27;28.60;;;19.20;;
18114;SDS011;9184;54.390;18.620;2022-12-10T01:18:58;30.60;;;18.50;;
18114;SDS011;9184;54.390;18.620;2022-12-10T01:19:28;31.77;;;18.73;;
18114;SDS011;9184;54.390;18.620;2022-12-10T01:20:00;33.87;;;19.63;;
18114;SDS011;9184;54.390;18.620;2022-12-10T01:20:33;32.57;;;20.70;;
18114;SDS011;9184;54.390;18.620;2022-12-10T01:21:05;33.90;;;20.80;;
18114;SDS011;9184;54.390;18.620;2022-12-10T01:21:36;33.28;;;20.50;;
18114;SDS011;9184;54.390;18.620;2022-12-10T01:22:07;29.23;;;18.70;;
18114;SDS011;9184;54.390;18.620;2022-12-10T01:22:38;30.70;;;19.13;;
18114;SDS011;9184;54.390;18.620;2022-12-10T01:23:09;26.80;;;18.00;;
18114;SDS011;9184;54.390;18.620;2022-12-10T01:23:40;29.83;;;18.37;;
18114;SDS011;9184;54.390;18.620;2022-12-10T01:24:11;28.77;;;18.38;;
18114;SDS011;9184;54.390;18.620;2022-12-10T01:24:42;30.13;;;18.63;;
18114;SDS011;9184;54.390;18.620;2022-12-10T01:25:15;27.00;;;18.53;;
18114;SDS011;9184;54.390;18.620;2022-12-10T01:25:45;29.07;;;18.20;;
18114;SDS011;9184;54.390;18.620;2022-12-10T01:26:17;28.30;;;19.17;;
18114;SDS011;9184;54.390;18.620;2022-12-10T01:26:48;30.47;;;17.97;;
18114;SDS011;9184;54.390;18.620;2022-12-10T01:27:19;25.40;;;17.60;;
18114;SDS011;9184;54.390;18.620;2022-12-10T01:27:49;30.03;;;18.23;;
18114;SDS011;9184;54.390;18.620;2022-12-10T01:28:21;29.87;;;17.43;;
18114;SDS011;9184;54.390;18.620;2022-12-10T01:28:52;25.50;;;17.37;;
18114;SDS011;9184;54.390;18.620;2022-12-10T01:29:22;26.17;;;16.80;;
18114;SDS011;9184;54.390;18.620;2022-12-10T01:29:53;27.43;;;17.63;;
18114;SDS011;9184;54.390;18.620;2022-12-10T01:30:24;28.43;;;16.73;;
18114;SDS011;9184;54.390;18.620;2022-12-10T01:30:55;26.03;;;16.60;;
18114;SDS011;9184;54.390;18.620;2022-12-10T01:31:26;25.53;;;16.57;;
18114;SDS011;9184;54.390;18.620;2022-12-10T01:31:58;28.23;;;17.67;;
18114;SDS011;9184;54.390;18.620;2022-12-10T01:32:29;26.67;;;17.10;;
18114;SDS011;9184;54.390;18.620;2022-12-10T01:33:00;25.93;;;17.43;;
18114;SDS011;9184;54.390;18.620;2022-12-10T01:33:30;27.37;;;17.27;;
18114;SDS011;9184;54.390;18.620;2022-12-10T01:34:01;27.77;;;17.77;;
18114;SDS011;9184;54.390;18.620;2022-12-10T01:34:33;30.97;;;18.53;;
18114;SDS011;9184;54.390;18.620;2022-12-10T01:35:04;30.73;;;19.13;;
18114;SDS011;9184;54.390;18.620;2022-12-10T01:35:35;31.37;;;19.40;;
18114;SDS011;9184;54.390;18.620;2022-12-10T01:36:07;36.07;;;20.50;;
18114;SDS011;9184;54.390;18.620;2022-12-10T01:36:39;39.37;;;21.87;;
18114;SDS011;9184;54.390;18.620;2022-12-10T01:37:09;32.33;;;20.73;;
18114;SDS011;9184;54.390;18.620;2022-12-10T01:37:41;38.30;;;22.10;;
18114;SDS011;9184;54.390;18.620;2022-12-10T01:38:11;35.10;;;20.47;;
18114;SDS011;9184;54.390;18.620;2022-12-10T01:38:42;38.00;;;21.73;;
18114;SDS011;9184;54.390;18.620;2022-12-10T01:39:13;35.87;;;21.87;;
18114;SDS011;9184;54.390;18.620;2022-12-10T01:39:45;34.80;;;21.20;;
18114;SDS011;9184;54.390;18.620;2022-12-10T01:40:16;34.27;;;20.77;;
18114;SDS011;9184;54.390;18.620;2022-12-10T01:40:46;34.93;;;19.67;;
18114;SDS011;9184;54.390;18.620;2022-12-10T01:41:19;36.73;;;19.77;;
18114;SDS011;9184;54.390;18.620;2022-12-10T01:41:50;37.60;;;20.43;;
18114;SDS011;9184;54.390;18.620;2022-12-10T01:42:21;31.47;;;19.73;;
18114;SDS011;9184;54.390;18.620;2022-12-10T01:42:53;35.93;;;20.40;;
18114;SDS011;9184;54.390;18.620;2022-12-10T01:43:23;32.93;;;19.87;;
18114;SDS011;9184;54.390;18.620;2022-12-10T01:43:55;34.20;;;20.10;;
18114;SDS011;9184;54.390;18.620;2022-12-10T01:45:15;34.37;;;20.40;;
18114;SDS011;9184;54.390;18.620;2022-12-10T01:45:46;35.17;;;21.33;;
18114;SDS011;9184;54.390;18.620;2022-12-10T01:46:17;31.67;;;20.90;;
18114;SDS011;9184;54.390;18.620;2022-12-10T01:46:49;37.13;;;22.37;;
18114;SDS011;9184;54.390;18.620;2022-12-10T01:47:21;39.53;;;22.57;;
18114;SDS011;9184;54.390;18.620;2022-12-10T01:47:53;37.83;;;22.47;;
18114;SDS011;9184;54.390;18.620;2022-12-10T01:48:23;33.90;;;21.43;;
18114;SDS011;9184;54.390;18.620;2022-12-10T01:48:54;31.57;;;19.07;;
18114;SDS011;9184;54.390;18.620;2022-12-10T01:49:27;33.97;;;20.77;;
18114;SDS011;9184;54.390;18.620;2022-12-10T01:50:02;32.23;;;20.03;;
18114;SDS011;9184;54.390;18.620;2022-12-10T01:50:33;33.13;;;20.60;;
18114;SDS011;9184;54.390;18.620;2022-12-10T01:51:04;34.67;;;21.00;;
18114;SDS011;9184;54.390;18.620;2022-12-10T01:51:36;33.47;;;20.27;;
18114;SDS011;9184;54.390;18.620;2022-12-10T01:52:09;31.73;;;19.37;;
18114;SDS011;9184;54.390;18.620;2022-12-10T01:52:41;30.60;;;19.20;;
18114;SDS011;9184;54.390;18.620;2022-12-10T01:53:12;30.47;;;19.20;;
18114;SDS011;9184;54.390;18.620;2022-12-10T01:53:43;31.57;;;19.90;;
18114;SDS011;9184;54.390;18.620;2022-12-10T01:54:17;33.27;;;20.13;;
18114;SDS011;9184;54.390;18.620;2022-12-10T01:54:48;32.80;;;19.13;;
18114;SDS011;9184;54.390;18.620;2022-12-10T01:55:37;30.77;;;18.10;;
18114;SDS011;9184;54.390;18.620;2022-12-10T01:56:09;25.10;;;15.00;;
18114;SDS011;9184;54.390;18.620;2022-12-10T01:56:40;25.57;;;16.23;;
18114;SDS011;9184;54.390;18.620;2022-12-10T01:57:12;25.50;;;17.30;;
18114;SDS011;9184;54.390;18.620;2022-12-10T01:57:44;25.73;;;16.10;;
18114;SDS011;9184;54.390;18.620;2022-12-10T01:58:15;25.70;;;15.83;;
18114;SDS011;9184;54.390;18.620;2022-12-10T01:58:46;26.50;;;16.37;;
18114;SDS011;9184;54.390;18.620;2022-12-10T01:59:18;27.47;;;16.50;;
18114;SDS011;9184;54.390;18.620;2022-12-10T01:59:50;27.30;;;17.27;;
18114;SDS011;9184;54.390;18.620;2022-12-10T02:00:21;28.03;;;17.90;;
18114;SDS011;9184;54.390;18.620;2022-12-10T02:00:55;25.97;;;17.47;;
18114;SDS011;9184;54.390;18.620;2022-12-10T02:01:30;29.23;;;17.87;;
18114;SDS011;9184;54.390;18.620;2022-12-10T02:02:05;27.90;;;16.05;;
18114;SDS011;9184;54.390;18.620;2022-12-10T02:02:41;25.07;;;16.10;;
18114;SDS011;9184;54.390;18.620;2022-12-10T02:03:14;23.87;;;15.73;;
18114;SDS011;9184;54.390;18.620;2022-12-10T02:03:51;21.70;;;15.67;;
18114;SDS011;9184;54.390;18.620;2022-12-10T02:04:24;22.20;;;15.20;;
18114;SDS011;9184;54.390;18.620;2022-12-10T02:05:03;23.23;;;16.33;;
18114;SDS011;9184;54.390;18.620;2022-12-10T02:05:36;24.20;;;15.97;;
18114;SDS011;9184;54.390;18.620;2022-12-10T02:06:13;25.90;;;16.93;;
18114;SDS011;9184;54.390;18.620;2022-12-10T02:06:49;25.67;;;15.23;;
18114;SDS011;9184;54.390;18.620;2022-12-10T02:07:24;29.33;;;16.63;;
18114;SDS011;9184;54.390;18.620;2022-12-10T02:07:59;25.40;;;15.87;;
18114;SDS011;9184;54.390;18.620;2022-12-10T02:08:33;26.27;;;16.13;;
18114;SDS011;9184;54.390;18.620;2022-12-10T02:09:09;24.60;;;15.73;;
18114;SDS011;9184;54.390;18.620;2022-12-10T02:09:42;22.60;;;15.80;;
18114;SDS011;9184;54.390;18.620;2022-12-10T02:10:17;27.17;;;16.53;;
18114;SDS011;9184;54.390;18.620;2022-12-10T02:10:53;25.23;;;16.17;;
18114;SDS011;9184;54.390;18.620;2022-12-10T02:11:27;28.17;;;16.87;;
18114;SDS011;9184;54.390;18.620;2022-12-10T02:12:02;25.60;;;16.93;;
18114;SDS011;9184;54.390;18.620;2022-12-10T02:12:46;23.90;;;15.93;;
18114;SDS011;9184;54.390;18.620;2022-12-10T02:13:19;26.63;;;16.73;;
18114;SDS011;9184;54.390;18.620;2022-12-10T02:13:53;25.93;;;17.20;;
18114;SDS011;9184;54.390;18.620;2022-12-10T02:14:28;25.43;;;17.33;;
18114;SDS011;9184;54.390;18.620;2022-12-10T02:15:00;26.17;;;17.33;;
18114;SDS011;9184;54.390;18.620;2022-12-10T02:15:33;23.73;;;15.83;;
18114;SDS011;9184;54.390;18.620;2022-12-10T02:16:06;24.80;;;16.03;;
18114;SDS011;9184;54.390;18.620;2022-12-10T02:16:40;29.37;;;16.00;;
18114;SDS011;9184;54.390;18.620;2022-12-10T02:17:13;26.00;;;16.20;;
18114;SDS011;9184;54.390;18.620;2022-12-10T02:17:48;23.97;;;15.87;;
18114;SDS011;9184;54.390;18.620;2022-12-10T02:18:19;25.83;;;15.40;;
18114;SDS011;9184;54.390;18.620;2022-12-10T02:18:51;24.10;;;15.93;;
18114;SDS011;9184;54.390;18.620;2022-12-10T02:19:26;25.23;;;16.23;;
18114;SDS011;9184;54.390;18.620;2022-12-10T02:20:00;24.17;;;16.43;;
18114;SDS011;9184;54.390;18.620;2022-12-10T02:20:32;29.93;;;17.53;;
18114;SDS011;9184;54.390;18.620;2022-12-10T02:21:07;26.83;;;16.37;;
18114;SDS011;9184;54.390;18.620;2022-12-10T02:21:39;26.63;;;17.63;;
18114;SDS011;9184;54.390;18.620;2022-12-10T02:22:10;28.37;;;19.13;;
18114;SDS011;9184;54.390;18.620;2022-12-10T02:22:44;24.17;;;17.20;;
18114;SDS011;9184;54.390;18.620;2022-12-10T02:23:16;24.37;;;16.63;;
18114;SDS011;9184;54.390;18.620;2022-12-10T02:23:49;24.67;;;16.33;;
18114;SDS011;9184;54.390;18.620;2022-12-10T02:24:23;23.83;;;16.33;;
18114;SDS011;9184;54.390;18.620;2022-12-10T02:24:55;25.43;;;15.67;;
18114;SDS011;9184;54.390;18.620;2022-12-10T02:25:29;23.13;;;15.70;;
18114;SDS011;9184;54.390;18.620;2022-12-10T02:26:05;24.97;;;16.13;;
18114;SDS011;9184;54.390;18.620;2022-12-10T02:26:38;22.15;;;14.40;;
18114;SDS011;9184;54.390;18.620;2022-12-10T02:27:12;22.10;;;15.70;;
18114;SDS011;9184;54.390;18.620;2022-12-10T02:27:46;24.03;;;15.50;;
18114;SDS011;9184;54.390;18.620;2022-12-10T02:28:19;24.20;;;16.83;;
18114;SDS011;9184;54.390;18.620;2022-12-10T02:28:51;24.13;;;15.40;;
18114;SDS011;9184;54.390;18.620;2022-12-10T02:29:26;24.57;;;16.07;;
18114;SDS011;9184;54.390;18.620;2022-12-10T02:29:56;25.57;;;15.90;;
18114;SDS011;9184;54.390;18.620;2022-12-10T02:30:28;24.23;;;15.73;;
18114;SDS011;9184;54.390;18.620;2022-12-10T02:31:01;25.37;;;16.57;;
18114;SDS011;9184;54.390;18.620;2022-12-10T02:31:32;24.43;;;15.23;;
18114;SDS011;9184;54.390;18.620;2022-12-10T02:32:05;24.33;;;16.37;;
18114;SDS011;9184;54.390;18.620;2022-12-10T02:32:38;22.43;;;15.70;;
18114;SDS011;9184;54.390;18.620;2022-12-10T02:33:10;21.33;;;14.77;;
18114;SDS011;9184;54.390;18.620;2022-12-10T02:33:43;24.03;;;15.23;;
18114;SDS011;9184;54.390;18.620;2022-12-10T02:34:16;26.00;;;16.23;;
18114;SDS011;9184;54.390;18.620;2022-12-10T02:34:50;22.97;;;16.07;;
18114;SDS011;9184;54.390;18.620;2022-12-10T02:35:22;24.10;;;16.13;;
18114;SDS011;9184;54.390;18.620;2022-12-10T02:35:55;24.80;;;16.20;;
18114;SDS011;9184;54.390;18.620;2022-12-10T02:36:29;25.00;;;16.77;;
18114;SDS011;9184;54.390;18.620;2022-12-10T02:37:02;25.13;;;17.27;;
18114;SDS011;9184;54.390;18.620;2022-12-10T02:37:36;28.20;;;17.40;;
18114;SDS011;9184;54.390;18.620;2022-12-10T02:38:09;25.80;;;16.50;;
18114;SDS011;9184;54.390;18.620;2022-12-10T02:38:41;26.93;;;17.13;;
18114;SDS011;9184;54.390;18.620;2022-12-10T02:39:12;24.13;;;16.97;;
18114;SDS011;9184;54.390;18.620;2022-12-10T02:39:47;26.27;;;16.70;;
18114;SDS011;9184;54.390;18.620;2022-12-10T02:40:20;24.40;;;15.40;;
18114;SDS011;9184;54.390;18.620;2022-12-10T02:40:53;25.40;;;17.33;;
18114;SDS011;9184;54.390;18.620;2022-12-10T02:41:27;22.67;;;15.83;;
18114;SDS011;9184;54.390;18.620;2022-12-10T02:41:59;27.27;;;17.60;;
18114;SDS011;9184;54.390;18.620;2022-12-10T02:42:30;25.33;;;16.80;;
18114;SDS011;9184;54.390;18.620;2022-12-10T02:43:04;27.17;;;16.60;;
18114;SDS011;9184;54.390;18.620;2022-12-10T02:43:36;25.13;;;15.77;;
18114;SDS011;9184;54.390;18.620;2022-12-10T02:44:07;25.60;;;16.67;;
18114;SDS011;9184;54.390;18.620;2022-12-10T02:44:40;25.30;;;16.70;;
18114;SDS011;9184;54.390;18.620;2022-12-10T02:45:13;27.03;;;16.90;;
18114;SDS011;9184;54.390;18.620;2022-12-10T02:45:43;26.87;;;16.97;;
18114;SDS011;9184;54.390;18.620;2022-12-10T02:46:14;23.93;;;16.77;;
18114;SDS011;9184;54.390;18.620;2022-12-10T02:46:47;24.17;;;15.80;;
18114;SDS011;9184;54.390;18.620;2022-12-10T02:47:18;28.87;;;16.60;;
18114;SDS011;9184;54.390;18.620;2022-12-10T02:47:49;24.87;;;16.43;;
18114;SDS011;9184;54.390;18.620;2022-12-10T02:48:21;22.93;;;15.80;;
18114;SDS011;9184;54.390;18.620;2022-12-10T02:48:52;24.17;;;16.23;;
18114;SDS011;9184;54.390;18.620;2022-12-10T02:49:23;24.90;;;17.23;;
18114;SDS011;9184;54.390;18.620;2022-12-10T02:49:55;25.10;;;16.03;;
18114;SDS011;9184;54.390;18.620;2022-12-10T02:50:26;27.40;;;18.60;;
18114;SDS011;9184;54.390;18.620;2022-12-10T02:50:57;37.90;;;25.93;;
18114;SDS011;9184;54.390;18.620;2022-12-10T02:51:28;35.07;;;26.57;;
18114;SDS011;9184;54.390;18.620;2022-12-10T02:51:59;30.57;;;21.50;;
18114;SDS011;9184;54.390;18.620;2022-12-10T02:52:30;30.67;;;20.53;;
18114;SDS011;9184;54.390;18.620;2022-12-10T02:53:00;27.93;;;18.70;;
18114;SDS011;9184;54.390;18.620;2022-12-10T02:53:32;37.87;;;26.47;;
18114;SDS011;9184;54.390;18.620;2022-12-10T02:54:03;93.03;;;63.17;;
18114;SDS011;9184;54.390;18.620;2022-12-10T02:54:35;88.00;;;60.83;;
18114;SDS011;9184;54.390;18.620;2022-12-10T02:55:09;111.90;;;82.60;;
18114;SDS011;9184;54.390;18.620;2022-12-10T02:55:46;94.80;;;75.97;;
18114;SDS011;9184;54.390;18.620;2022-12-10T02:56:19;74.13;;;58.23;;
18114;SDS011;9184;54.390;18.620;2022-12-10T02:56:51;47.37;;;39.27;;
18114;SDS011;9184;54.390;18.620;2022-12-10T02:57:28;26.50;;;19.03;;
18114;SDS011;9184;54.390;18.620;2022-12-10T02:58:06;24.93;;;15.87;;
18114;SDS011;9184;54.390;18.620;2022-12-10T02:58:43;26.23;;;16.67;;
18114;SDS011;9184;54.390;18.620;2022-12-10T02:59:18;25.00;;;16.70;;
18114;SDS011;9184;54.390;18.620;2022-12-10T02:59:58;31.80;;;23.70;;
18114;SDS011;9184;54.390;18.620;2022-12-10T03:00:31;25.67;;;17.17;;
18114;SDS011;9184;54.390;18.620;2022-12-10T03:01:06;28.37;;;17.83;;
18114;SDS011;9184;54.390;18.620;2022-12-10T03:01:39;26.30;;;17.70;;
18114;SDS011;9184;54.390;18.620;2022-12-10T03:02:12;24.17;;;17.47;;
18114;SDS011;9184;54.390;18.620;2022-12-10T03:02:59;27.60;;;19.43;;
18114;SDS011;9184;54.390;18.620;2022-12-10T03:03:34;27.63;;;19.50;;
18114;SDS011;9184;54.390;18.620;2022-12-10T03:04:09;26.70;;;17.93;;
18114;SDS011;9184;54.390;18.620;2022-12-10T03:04:44;34.23;;;22.93;;
18114;SDS011;9184;54.390;18.620;2022-12-10T03:05:17;29.47;;;20.97;;
18114;SDS011;9184;54.390;18.620;2022-12-10T03:05:52;30.77;;;20.90;;
18114;SDS011;9184;54.390;18.620;2022-12-10T03:06:27;26.80;;;19.20;;
18114;SDS011;9184;54.390;18.620;2022-12-10T03:07:00;27.07;;;16.73;;
18114;SDS011;9184;54.390;18.620;2022-12-10T03:07:33;25.03;;;16.13;;
18114;SDS011;9184;54.390;18.620;2022-12-10T03:08:09;23.60;;;15.90;;
18114;SDS011;9184;54.390;18.620;2022-12-10T03:08:45;24.67;;;16.20;;